Whaley Bridge, United Kingdom
Current Conditions -  °F | °C
As of 10:20 PM on Wednesday 22 Oct 2014 (Local Time) from EGCC Reporting Station
Scattered Clouds Scattered Clouds  
Wind Chill: 50°   Ceiling: Unl
Heat Index: 50°   Visibility: 6mi
Dew Point: 48°   Wind: 6mph
Humidity: 94%   Direction: 200°SSW
Pressure: 30.12"   Gusts: NA
Location:  53.33°N, 1.98°W
Report Text: EGCC 222120Z AUTO 20005KT 9999 SCT026 10/09 Q1020
Loading
Personal Weather Stations






























Interactive Weather Map
Tropical Storm Tracking
New forecast layout! Learn more

10-Day Weather Forecast

Advertisements
Track Severe Weather on mobile